Time;durP1;ratioP1;P1;durP2;ratioP2;P2;SDS_P1;SDS_P2;PMS_P1;PMS_P2;Temp;Humidity;BMP_temperature;BMP_pressure;BME280_temperature;BME280_humidity;BME280_pressure;Samples;Min_cycle;Max_cycle;Signal;HPM_P1;HPM_P2
2022/03/16 00:02:20;;;;;;;18.60;15.67;;;4.70;99.90;;;;;;2615776;54;20392;-76
2022/03/16 00:04:53;;;;;;;23.63;17.07;;;4.70;99.90;;;;;;2616506;54;20366;-76
2022/03/16 00:07:20;;;;;;;30.80;16.97;;;4.60;99.90;;;;;;2616486;46;20503;-76
2022/03/16 00:10:10;;;;;;;21.67;16.07;;;4.60;99.90;;;;;;2615680;54;20371;-76
2022/03/16 00:12:37;;;;;;;28.87;15.10;;;4.50;99.90;;;;;;2614506;54;20393;-75
2022/03/16 00:15:04;;;;;;;18.10;14.57;;;4.40;99.90;;;;;;2614213;47;20450;-76
2022/03/16 00:17:30;;;;;;;21.60;17.17;;;4.40;99.90;;;;;;2614141;47;20412;-75
2022/03/16 00:19:56;;;;;;;27.47;16.50;;;4.50;99.90;;;;;;2614318;39;20819;-78
2022/03/16 00:22:22;;;;;;;26.73;16.50;;;4.30;99.90;;;;;;2613607;54;20955;-77
2022/03/16 00:24:48;;;;;;;19.77;14.53;;;4.40;99.90;;;;;;2614145;54;20837;-77
2022/03/16 00:27:16;;;;;;;19.50;15.53;;;4.30;99.90;;;;;;2614638;54;20557;-76
2022/03/16 00:29:41;;;;;;;22.30;16.50;;;4.40;99.90;;;;;;2614239;47;20395;-78
2022/03/16 00:32:07;;;;;;;21.17;15.20;;;4.60;99.90;;;;;;2614596;47;20410;-77
2022/03/16 00:34:35;;;;;;;19.53;15.23;;;;;;;;;;2614106;39;21016;-76
2022/03/16 00:37:00;;;;;;;23.37;14.87;;;4.60;99.90;;;;;;2613719;47;20424;-77
2022/03/16 00:39:28;;;;;;;19.70;15.17;;;4.40;99.90;;;;;;2614463;54;20433;-76
2022/03/16 00:41:56;;;;;;;18.70;14.70;;;4.50;99.90;;;;;;2615280;47;20518;-78
2022/03/16 00:44:22;;;;;;;20.23;15.23;;;4.50;99.90;;;;;;2615843;51;20525;-76
2022/03/16 00:46:48;;;;;;;20.60;14.70;;;4.50;99.90;;;;;;2616561;39;20860;-75
2022/03/16 00:49:14;;;;;;;19.30;14.37;;;4.50;99.90;;;;;;2616723;47;20466;-75
2022/03/16 00:51:40;;;;;;;19.73;14.23;;;4.40;99.90;;;;;;2617325;47;20415;-76
2022/03/16 00:54:09;;;;;;;17.60;13.20;;;4.40;99.90;;;;;;2616796;47;20735;-76
2022/03/16 00:56:36;;;;;;;19.50;13.83;;;4.40;99.90;;;;;;2615155;39;20739;-77
2022/03/16 00:59:02;;;;;;;16.20;14.50;;;4.30;99.90;;;;;;2615586;46;20411;-76
2022/03/16 01:01:29;;;;;;;18.43;13.67;;;4.20;99.90;;;;;;2616588;39;20942;-76
2022/03/16 01:03:56;;;;;;;20.77;14.77;;;4.20;99.90;;;;;;2616553;54;20423;-76
2022/03/16 01:06:23;;;;;;;20.40;14.57;;;4.20;99.90;;;;;;2616032;47;20427;-80
2022/03/16 01:08:50;;;;;;;18.20;14.10;;;4.10;99.90;;;;;;2616757;54;20382;-76
2022/03/16 01:11:16;;;;;;;26.60;15.00;;;4.10;99.90;;;;;;2615221;47;20427;-77
2022/03/16 01:13:43;;;;;;;24.23;14.87;;;4.00;99.90;;;;;;2616642;39;20850;-77
2022/03/16 01:16:09;;;;;;;20.20;14.10;;;3.90;99.90;;;;;;2615737;54;20386;-76
2022/03/16 01:18:59;;;;;;;21.30;14.63;;;3.80;99.90;;;;;;2615871;47;20479;-76
2022/03/16 01:21:26;;;;;;;19.47;14.27;;;3.90;99.90;;;;;;2614757;46;20422;-77
2022/03/16 01:23:53;;;;;;;21.63;13.93;;;3.90;99.90;;;;;;2616423;47;20519;-76
2022/03/16 01:26:19;;;;;;;17.90;13.80;;;3.80;99.90;;;;;;2614029;54;20446;-76
2022/03/16 01:28:45;;;;;;;18.53;14.00;;;3.90;99.90;;;;;;2615416;47;20403;-76
2022/03/16 01:31:11;;;;;;;24.00;14.50;;;3.90;99.90;;;;;;2617053;31;20880;-76
2022/03/16 01:33:37;;;;;;;20.23;15.07;;;3.90;99.90;;;;;;2615983;47;20201;-77
2022/03/16 01:36:04;;;;;;;20.70;14.83;;;3.80;99.90;;;;;;2614372;47;20427;-77
2022/03/16 01:38:30;;;;;;;16.57;14.00;;;3.90;99.90;;;;;;2614516;54;20448;-77
2022/03/16 01:40:57;;;;;;;25.00;15.30;;;3.90;99.90;;;;;;2614218;47;20428;-77
2022/03/16 01:43:24;;;;;;;18.30;13.80;;;3.80;99.90;;;;;;2615406;54;20440;-79
2022/03/16 01:45:52;;;;;;;16.90;13.17;;;3.80;99.90;;;;;;2614328;47;22024;-76
2022/03/16 01:48:19;;;;;;;20.77;15.23;;;3.80;99.90;;;;;;2614631;47;20968;-76
2022/03/16 01:50:47;;;;;;;17.60;13.47;;;3.80;99.90;;;;;;2614519;47;20399;-78
2022/03/16 01:53:14;;;;;;;19.00;15.27;;;3.80;99.90;;;;;;2614030;54;22012;-77
2022/03/16 01:55:42;;;;;;;18.33;14.50;;;3.80;99.90;;;;;;2614126;47;20447;-76
2022/03/16 01:58:10;;;;;;;21.90;16.17;;;3.90;99.90;;;;;;2614710;39;20871;-76
2022/03/16 02:00:38;;;;;;;21.50;14.00;;;3.80;99.90;;;;;;2613964;47;20391;-77
2022/03/16 02:03:07;;;;;;;21.53;15.40;;;3.70;99.90;;;;;;2614136;47;20482;-76
2022/03/16 02:05:33;;;;;;;22.10;14.90;;;3.80;99.90;;;;;;2614430;54;20401;-76
2022/03/16 02:08:00;;;;;;;21.17;14.20;;;3.80;99.90;;;;;;2614407;47;20407;-76
2022/03/16 02:10:27;;;;;;;20.20;14.30;;;3.70;99.90;;;;;;2613955;47;20410;-77
2022/03/16 02:12:53;;;;;;;20.20;15.80;;;3.60;99.90;;;;;;2614124;46;20538;-76
2022/03/16 02:15:20;;;;;;;22.93;14.33;;;3.60;99.90;;;;;;2614539;54;20406;-77
2022/03/16 02:17:46;;;;;;;20.67;16.27;;;3.50;99.90;;;;;;2615399;54;20497;-76
2022/03/16 02:20:12;;;;;;;26.17;15.83;;;3.60;99.90;;;;;;2615180;39;20806;-76
2022/03/16 02:23:02;;;;;;;21.00;15.97;;;3.70;99.90;;;;;;2613975;47;20428;-77
2022/03/16 02:25:30;;;;;;;22.33;14.90;;;3.80;99.90;;;;;;2614668;47;20382;-76
2022/03/16 02:28:00;;;;;;;21.33;15.27;;;3.80;99.90;;;;;;2614549;46;20427;-76
2022/03/16 02:30:28;;;;;;;21.33;15.60;;;3.90;99.90;;;;;;2614799;47;20452;-77
2022/03/16 02:32:54;;;;;;;16.87;13.37;;;3.90;99.90;;;;;;2614570;47;20404;-76
2022/03/16 02:35:22;;;;;;;22.27;16.43;;;4.00;99.90;;;;;;2615078;47;20559;-76
2022/03/16 02:37:49;;;;;;;20.37;15.50;;;4.00;99.90;;;;;;2616468;39;21430;-77
2022/03/16 02:40:20;;;;;;;19.37;14.70;;;4.00;99.90;;;;;;2615857;47;20387;-77
2022/03/16 02:42:47;;;;;;;21.47;14.70;;;4.00;99.90;;;;;;2615669;47;20968;-76
2022/03/16 02:45:14;;;;;;;20.30;14.73;;;4.00;99.90;;;;;;2616787;54;20935;-76
2022/03/16 02:48:06;;;;;;;20.10;15.10;;;3.90;99.90;;;;;;2616163;39;20821;-77
2022/03/16 02:50:32;;;;;;;19.40;13.57;;;3.90;99.90;;;;;;2613851;47;20438;-77
2022/03/16 02:52:59;;;;;;;24.33;14.80;;;3.80;99.90;;;;;;2614377;47;20399;-77
2022/03/16 02:55:25;;;;;;;17.23;13.30;;;3.70;99.90;;;;;;2615214;47;20535;-76
2022/03/16 02:57:51;;;;;;;22.23;13.77;;;3.70;99.90;;;;;;2614651;39;20924;-75
2022/03/16 03:00:18;;;;;;;19.73;13.67;;;3.60;99.90;;;;;;2613880;47;20477;-75
2022/03/16 03:02:44;;;;;;;18.50;13.50;;;3.70;99.90;;;;;;2616059;31;20881;-77
2022/03/16 03:05:12;;;;;;;17.57;13.73;;;3.70;99.90;;;;;;2614725;47;20985;-75
2022/03/16 03:07:38;;;;;;;18.43;13.70;;;3.60;99.90;;;;;;2615380;39;20867;-76
2022/03/16 03:10:07;;;;;;;17.20;13.87;;;3.50;99.90;;;;;;2614718;54;20428;-76
2022/03/16 03:12:35;;;;;;;21.03;13.80;;;3.60;99.90;;;;;;2615181;54;20419;-75
2022/03/16 03:15:10;;;;;;;16.53;13.90;;;3.40;99.90;;;;;;2615130;47;20621;-76
2022/03/16 03:17:37;;;;;;;16.83;13.00;;;3.40;99.90;;;;;;2615747;39;21370;-75
2022/03/16 03:20:04;;;;;;;19.67;15.10;;;3.40;99.90;;;;;;2614848;47;20425;-75
2022/03/16 03:22:29;;;;;;;17.27;14.23;;;3.50;99.90;;;;;;2614578;47;20431;-75
2022/03/16 03:24:57;;;;;;;16.10;12.87;;;3.50;99.90;;;;;;2614480;47;20509;-77
2022/03/16 03:27:24;;;;;;;18.37;14.13;;;3.40;99.90;;;;;;2615445;46;20401;-76
2022/03/16 03:29:51;;;;;;;17.63;13.17;;;3.30;99.90;;;;;;2615939;47;20509;-76
2022/03/16 03:32:17;;;;;;;21.73;13.50;;;3.40;99.90;;;;;;2616541;54;20403;-76
2022/03/16 03:34:47;;;;;;;22.20;14.70;;;3.30;99.90;;;;;;2616076;51;20420;-76
2022/03/16 03:37:14;;;;;;;18.50;14.83;;;3.30;99.90;;;;;;2616056;47;20415;-75
2022/03/16 03:39:40;;;;;;;19.23;15.00;;;3.30;99.90;;;;;;2616481;39;20811;-77
2022/03/16 03:42:08;;;;;;;21.60;14.80;;;3.10;99.90;;;;;;2616511;54;20522;-77
2022/03/16 03:44:38;;;;;;;20.77;14.53;;;3.20;99.90;;;;;;2616493;47;20466;-76
2022/03/16 03:47:05;;;;;;;15.47;13.33;;;3.20;99.90;;;;;;2617038;39;20774;-76
2022/03/16 03:49:34;;;;;;;17.93;15.90;;;3.10;99.90;;;;;;2616743;47;20586;-76
2022/03/16 03:52:02;;;;;;;17.20;13.73;;;3.20;99.90;;;;;;2616318;47;20493;-77
2022/03/16 03:54:29;;;;;;;19.27;15.63;;;3.20;99.90;;;;;;2616326;54;20402;-75
2022/03/16 03:56:56;;;;;;;24.00;14.27;;;3.20;99.90;;;;;;2617065;39;20767;-76
2022/03/16 03:59:23;;;;;;;18.47;13.20;;;3.20;99.90;;;;;;2617242;54;20944;-76
2022/03/16 04:01:50;;;;;;;18.27;14.10;;;3.10;99.90;;;;;;2616651;46;20966;-76
2022/03/16 04:04:17;;;;;;;20.17;14.40;;;3.10;99.90;;;;;;2616615;47;20453;-77
2022/03/16 04:06:45;;;;;;;16.63;13.17;;;3.10;99.90;;;;;;2616957;47;20453;-77
2022/03/16 04:09:11;;;;;;;21.00;15.50;;;3.10;99.90;;;;;;2617354;54;20543;-78
2022/03/16 04:11:39;;;;;;;20.07;14.07;;;3.10;99.90;;;;;;2616691;47;20419;-78
2022/03/16 04:14:06;;;;;;;19.00;14.37;;;3.00;99.90;;;;;;2617283;54;20963;-76
2022/03/16 04:16:32;;;;;;;17.63;14.33;;;3.00;99.90;;;;;;2616979;47;20498;-76
2022/03/16 04:18:59;;;;;;;17.57;13.57;;;2.90;99.90;;;;;;2616978;47;20419;-77
2022/03/16 04:21:26;;;;;;;18.93;14.97;;;2.90;99.90;;;;;;2616068;54;20422;-76
2022/03/16 04:23:52;;;;;;;21.40;13.97;;;2.90;99.90;;;;;;2616302;54;20394;-76
2022/03/16 04:26:18;;;;;;;18.97;13.87;;;2.90;99.90;;;;;;2616700;54;20411;-76
2022/03/16 04:28:45;;;;;;;20.77;14.33;;;2.80;99.90;;;;;;2615933;54;20407;-77
2022/03/16 04:31:14;;;;;;;18.73;13.53;;;2.70;99.90;;;;;;2616741;54;20449;-76
2022/03/16 04:34:06;;;;;;;16.83;13.30;;;2.80;99.90;;;;;;2617133;39;20814;-77
2022/03/16 04:36:32;;;;;;;21.27;15.00;;;2.90;99.90;;;;;;2615189;47;20391;-76
2022/03/16 04:38:59;;;;;;;23.63;14.60;;;2.90;99.90;;;;;;2615775;39;20876;-77
2022/03/16 04:41:25;;;;;;;20.03;14.43;;;2.80;99.90;;;;;;2615148;47;20404;-77
2022/03/16 04:43:51;;;;;;;22.40;13.80;;;2.70;99.90;;;;;;2615597;46;21019;-77
2022/03/16 04:46:16;;;;;;;17.40;13.47;;;2.70;99.90;;;;;;2615788;54;20398;-77
2022/03/16 04:48:44;;;;;;;18.83;13.90;;;2.70;99.90;;;;;;2616172;54;20556;-76
2022/03/16 04:51:10;;;;;;;20.23;13.37;;;2.70;99.90;;;;;;2616107;47;20722;-76
2022/03/16 04:53:37;;;;;;;16.03;12.37;;;2.70;99.90;;;;;;2615419;46;20420;-81
2022/03/16 04:56:29;;;;;;;20.83;13.37;;;2.70;99.90;;;;;;2614761;47;20406;-77
2022/03/16 04:58:55;;;;;;;24.20;13.60;;;2.70;99.90;;;;;;2613556;46;21069;-76
2022/03/16 05:01:22;;;;;;;19.33;14.03;;;2.60;99.90;;;;;;2614116;54;20375;-78
2022/03/16 05:03:50;;;;;;;12.93;11.60;;;2.60;99.90;;;;;;2615152;54;21007;-76
2022/03/16 05:06:18;;;;;;;18.57;12.73;;;2.60;99.90;;;;;;2615503;54;20375;-75
2022/03/16 05:08:45;;;;;;;23.63;13.20;;;2.60;99.90;;;;;;2615640;47;20407;-76
2022/03/16 05:11:40;;;;;;;16.70;11.83;;;2.50;99.90;;;;;;2614969;47;20435;-77
2022/03/16 05:14:07;;;;;;;17.53;13.67;;;2.50;99.90;;;;;;2614769;39;20856;-77
2022/03/16 05:16:33;;;;;;;19.10;12.73;;;2.50;99.90;;;;;;2614361;47;20467;-76
2022/03/16 05:18:59;;;;;;;19.80;13.80;;;2.60;99.90;;;;;;2614713;47;20441;-77
2022/03/16 05:21:25;;;;;;;17.93;14.03;;;2.50;99.90;;;;;;2615213;47;20407;-76
2022/03/16 05:23:53;;;;;;;15.30;12.63;;;2.60;99.90;;;;;;2615717;39;20572;-77
2022/03/16 05:26:21;;;;;;;14.90;12.20;;;2.60;99.90;;;;;;2613385;47;20415;-76
2022/03/16 05:28:47;;;;;;;20.77;12.63;;;2.50;99.90;;;;;;2613827;54;20916;-77
2022/03/16 05:31:13;;;;;;;17.90;11.97;;;2.30;99.90;;;;;;2615113;47;20470;-77
2022/03/16 05:33:39;;;;;;;16.40;12.00;;;2.40;99.90;;;;;;2614744;46;20181;-76
2022/03/16 05:36:05;;;;;;;15.80;12.67;;;2.40;99.90;;;;;;2613616;54;20519;-76
2022/03/16 05:38:57;;;;;;;19.50;13.17;;;2.60;99.90;;;;;;2614542;47;20991;-76
2022/03/16 05:41:24;;;;;;;18.27;13.10;;;2.80;99.90;;;;;;2614246;54;20517;-76
2022/03/16 05:43:50;;;;;;;19.20;15.13;;;2.90;99.90;;;;;;2615247;54;20467;-77
2022/03/16 05:46:16;;;;;;;15.20;12.00;;;3.00;99.90;;;;;;2615432;39;20650;-77
2022/03/16 05:48:42;;;;;;;21.07;14.10;;;3.00;99.90;;;;;;2614545;54;20415;-77
2022/03/16 05:51:34;;;;;;;21.00;13.80;;;3.00;99.90;;;;;;2613848;47;20163;-77
2022/03/16 05:54:00;;;;;;;15.10;12.90;;;3.10;99.90;;;;;;2614681;54;20498;-76
2022/03/16 05:56:27;;;;;;;18.93;14.00;;;3.10;99.90;;;;;;2613966;47;20415;-77
2022/03/16 05:58:53;;;;;;;22.87;13.57;;;3.10;99.90;;;;;;2614488;54;20190;-77
2022/03/16 06:01:19;;;;;;;21.40;14.60;;;3.20;99.90;;;;;;2615091;54;20968;-77
2022/03/16 06:03:47;;;;;;;19.93;13.93;;;3.30;99.90;;;;;;2614346;54;20403;-76
2022/03/16 06:06:13;;;;;;;18.03;13.07;;;3.30;99.90;;;;;;2613763;47;20451;-78
2022/03/16 06:08:39;;;;;;;18.33;13.20;;;3.30;99.90;;;;;;2614249;39;20818;-77
2022/03/16 06:11:06;;;;;;;16.00;12.80;;;3.30;99.90;;;;;;2613924;39;20608;-77
2022/03/16 06:13:32;;;;;;;15.20;12.33;;;3.20;99.90;;;;;;2613730;47;20431;-77
2022/03/16 06:15:58;;;;;;;23.43;14.53;;;3.20;99.90;;;;;;2613853;47;21025;-77
2022/03/16 06:18:24;;;;;;;21.07;15.80;;;3.20;99.90;;;;;;2615367;54;20419;-77
2022/03/16 06:21:16;;;;;;;19.87;14.67;;;3.20;99.90;;;;;;2614914;39;20663;-78
2022/03/16 06:24:11;;;;;;;22.50;15.43;;;3.20;99.90;;;;;;2615749;54;20558;-78
2022/03/16 06:26:40;;;;;;;18.17;13.73;;;3.30;99.90;;;;;;2614433;47;20413;-78
2022/03/16 06:29:08;;;;;;;24.47;14.77;;;3.60;99.90;;;;;;2614443;47;20415;-77
2022/03/16 06:31:34;;;;;;;20.83;14.70;;;3.70;99.90;;;;;;2615567;47;20428;-78
2022/03/16 06:34:26;;;;;;;24.97;16.13;;;3.90;99.90;;;;;;2615389;47;20383;-78
2022/03/16 06:36:51;;;;;;;26.70;16.70;;;4.30;99.90;;;;;;2615689;39;20801;-78
2022/03/16 06:39:17;;;;;;;20.93;14.20;;;4.50;99.90;;;;;;2614338;47;20545;-80
2022/03/16 06:41:43;;;;;;;24.90;16.73;;;4.70;99.90;;;;;;2613519;54;20146;-77
2022/03/16 06:44:10;;;;;;;21.87;15.60;;;5.00;99.90;;;;;;2613606;47;20439;-79
2022/03/16 06:46:37;;;;;;;21.43;15.60;;;5.50;99.90;;;;;;2614107;47;20427;-78
2022/03/16 06:49:04;;;;;;;19.93;15.07;;;6.20;99.90;;;;;;2615224;39;20775;-78
2022/03/16 06:51:30;;;;;;;20.80;15.50;;;6.80;99.90;;;;;;2615485;47;20526;-78
2022/03/16 06:53:58;;;;;;;20.80;14.43;;;7.20;99.90;;;;;;2614482;47;20399;-77
2022/03/16 06:56:24;;;;;;;19.70;13.93;;;7.30;99.90;;;;;;2614771;47;20178;-78
2022/03/16 06:59:23;;;;;;;16.00;13.43;;;7.60;99.90;;;;;;2614698;39;20428;-78
2022/03/16 07:01:49;;;;;;;21.13;14.10;;;7.50;99.90;;;;;;2615558;47;21131;-79
2022/03/16 07:04:17;;;;;;;17.13;12.60;;;7.80;99.90;;;;;;2614489;47;20404;-78
2022/03/16 07:06:43;;;;;;;13.10;11.00;;;8.00;99.90;;;;;;2614550;54;20146;-77
2022/03/16 07:09:08;;;;;;;14.43;12.50;;;8.10;99.90;;;;;;2614318;47;20435;-77
2022/03/16 07:11:34;;;;;;;21.90;15.13;;;8.40;99.90;;;;;;2614348;47;20158;-78
2022/03/16 07:14:32;;;;;;;15.80;11.33;;;8.70;99.90;;;;;;2614079;46;20528;-78
2022/03/16 07:17:02;;;;;;;12.33;10.90;;;9.40;99.90;;;;;;2613895;47;20416;-77
2022/03/16 07:19:54;;;;;;;17.30;10.90;;;9.80;99.90;;;;;;2611854;47;20426;-77
2022/03/16 07:22:20;;;;;;;16.20;11.70;;;10.20;99.90;;;;;;2612907;47;20424;-77
2022/03/16 07:25:13;;;;;;;14.00;10.40;;;10.80;99.90;;;;;;2611997;47;20426;-77
2022/03/16 07:27:39;;;;;;;15.73;11.60;;;11.00;99.90;;;;;;2610657;47;20434;-78
2022/03/16 07:30:09;;;;;;;13.30;11.17;;;11.30;95.20;;;;;;2611827;54;21094;-77
2022/03/16 07:32:39;;;;;;;17.07;11.33;;;11.50;93.70;;;;;;2611346;51;20454;-77
2022/03/16 07:35:06;;;;;;;11.83;10.50;;;11.70;82.90;;;;;;2612286;54;20434;-76
2022/03/16 07:37:34;;;;;;;15.33;12.77;;;12.00;80.30;;;;;;2611422;47;20414;-79
2022/03/16 07:40:02;;;;;;;15.27;11.33;;;12.00;58.40;;;;;;2613603;47;20612;-77
2022/03/16 07:42:30;;;;;;;14.40;12.30;;;12.20;49.60;;;;;;2613646;54;20971;-78
2022/03/16 07:44:59;;;;;;;13.37;11.90;;;11.90;58.60;;;;;;2613843;54;20455;-77
2022/03/16 07:47:25;;;;;;;16.07;11.30;;;11.90;54.20;;;;;;2613242;54;21420;-78
2022/03/16 07:49:56;;;;;;;16.07;11.83;;;11.90;57.10;;;;;;2613933;39;21120;-77
2022/03/16 07:52:24;;;;;;;16.27;11.43;;;11.80;54.10;;;;;;2614711;54;20396;-78
2022/03/16 07:54:50;;;;;;;13.40;10.90;;;11.90;51.50;;;;;;2614185;47;20411;-77
2022/03/16 07:57:17;;;;;;;18.60;11.00;;;12.10;46.70;;;;;;2614642;39;20803;-78
2022/03/16 07:59:44;;;;;;;14.57;10.40;;;12.10;49.50;;;;;;2614279;47;20422;-79
2022/03/16 08:02:14;;;;;;;22.70;12.07;;;12.30;45.90;;;;;;2614489;54;20407;-78
2022/03/16 08:04:39;;;;;;;12.77;10.20;;;12.50;46.00;;;;;;2615762;47;20454;-78
2022/03/16 08:07:06;;;;;;;14.83;12.63;;;12.70;40.00;;;;;;2615606;46;20523;-78
2022/03/16 08:09:31;;;;;;;11.83;10.50;;;12.90;38.30;;;;;;2615890;39;20800;-78
2022/03/16 08:11:57;;;;;;;16.40;11.93;;;13.10;36.50;;;;;;2615552;47;20431;-79
2022/03/16 08:14:24;;;;;;;15.10;11.83;;;13.20;37.80;;;;;;2616416;54;20163;-79
2022/03/16 08:16:50;;;;;;;16.83;11.33;;;13.60;33.60;;;;;;2616562;47;20273;-77
2022/03/16 08:19:19;;;;;;;14.47;12.67;;;13.90;29.50;;;;;;2616524;47;20423;-77
2022/03/16 08:21:47;;;;;;;15.10;13.20;;;14.10;26.70;;;;;;2616158;47;21659;-78
2022/03/16 08:24:14;;;;;;;13.23;11.73;;;14.30;26.00;;;;;;2615615;39;20770;-78
2022/03/16 08:26:41;;;;;;;12.40;11.10;;;14.60;22.40;;;;;;2616259;39;20837;-77
2022/03/16 08:29:07;;;;;;;15.67;12.23;;;14.90;21.60;;;;;;2616059;47;20427;-78
2022/03/16 08:31:34;;;;;;;11.60;10.33;;;15.20;19.10;;;;;;2616982;47;20422;-78
2022/03/16 08:34:02;;;;;;;14.40;12.90;;;15.60;16.90;;;;;;2616466;54;20423;-76
2022/03/16 08:36:28;;;;;;;12.53;11.33;;;15.60;15.60;;;;;;2616341;47;20416;-78
2022/03/16 08:38:54;;;;;;;14.83;12.60;;;15.30;15.60;;;;;;2616709;47;20482;-79
2022/03/16 08:41:20;;;;;;;12.83;11.50;;;15.40;15.80;;;;;;2616135;47;20427;-77
2022/03/16 08:43:47;;;;;;;13.17;11.77;;;15.30;16.30;;;;;;2616897;47;20443;-77
2022/03/16 08:46:12;;;;;;;16.77;13.20;;;15.40;15.40;;;;;;2617098;54;20407;-77
2022/03/16 08:48:38;;;;;;;12.83;11.57;;;15.70;14.30;;;;;;2616900;47;20403;-77
2022/03/16 08:51:08;;;;;;;14.83;11.50;;;15.80;13.70;;;;;;2617068;39;20562;-80
2022/03/16 08:53:34;;;;;;;13.23;11.87;;;16.00;12.70;;;;;;2616620;54;20422;-78
2022/03/16 08:56:07;;;;;;;14.07;11.73;;;15.90;11.90;;;;;;2617571;39;20486;-78
2022/03/16 08:58:48;;;;;;;11.90;10.70;;;16.10;11.00;;;;;;2617181;39;20764;-78
2022/03/16 09:01:23;;;;;;;12.40;11.10;;;15.90;12.00;;;;;;2616893;39;20888;-78
2022/03/16 09:04:02;;;;;;;14.50;11.97;;;16.20;12.70;;;;;;2617144;39;20883;-80
2022/03/16 09:06:30;;;;;;;12.63;11.30;;;16.50;9.90;;;;;;2616706;47;20426;-79
2022/03/16 09:08:56;;;;;;;14.33;11.53;;;16.60;8.60;;;;;;2617084;31;20891;-79
2022/03/16 09:11:24;;;;;;;14.27;12.87;;;16.40;7.70;;;;;;2615929;47;21009;-78
2022/03/16 09:14:20;;;;;;;12.27;10.67;;;15.90;9.90;;;;;;2616254;47;20478;-79
2022/03/16 09:16:48;;;;;;;12.17;11.03;;;15.70;11.20;;;;;;2616262;47;20404;-79
2022/03/16 09:19:16;;;;;;;11.87;10.67;;;15.60;9.90;;;;;;2615820;46;21001;-78
2022/03/16 09:21:46;;;;;;;14.43;11.50;;;15.60;10.50;;;;;;2616683;54;20392;-79
2022/03/16 09:24:12;;;;;;;12.80;11.57;;;15.80;10.80;;;;;;2616255;47;20400;-79
2022/03/16 09:26:47;;;;;;;13.37;10.90;;;15.60;8.70;;;;;;2616172;47;20458;-78
2022/03/16 09:29:23;;;;;;;11.50;9.47;;;14.80;11.40;;;;;;2616217;39;20824;-80
2022/03/16 09:32:46;;;;;;;;;;;;;;;;;;;;;
2022/03/16 09:35:18;;;;;;;11.90;10.27;;;;;;;;;;2615381;47;20439;-81
2022/03/16 09:38:13;;;;;;;11.27;9.97;;;14.20;12.50;;;;;;2616711;47;20411;-79
2022/03/16 09:40:41;;;;;;;12.33;11.00;;;;;;;;;;2615082;54;20431;-80
2022/03/16 09:43:15;;;;;;;11.80;10.60;;;13.90;14.50;;;;;;2617238;39;20524;-79
2022/03/16 09:46:19;;;;;;;12.00;10.80;;;14.10;15.70;;;;;;2616800;46;20459;-78
2022/03/16 09:49:03;;;;;;;12.03;10.27;;;15.00;15.10;;;;;;2616478;46;20462;-79
2022/03/16 09:51:35;;;;;;;11.40;9.90;;;14.60;13.10;;;;;;2617316;54;20449;-79
2022/03/16 09:54:03;;;;;;;12.00;10.93;;;14.80;13.90;;;;;;2617223;46;20535;-79
2022/03/16 09:56:32;;;;;;;13.10;11.47;;;14.80;13.20;;;;;;2616804;54;20441;-78
2022/03/16 09:58:58;;;;;;;12.03;10.93;;;15.00;10.20;;;;;;2617042;47;20534;-78
2022/03/16 10:01:25;;;;;;;13.10;10.70;;;15.10;10.80;;;;;;2616713;54;20406;-78
2022/03/16 10:04:30;;;;;;;14.10;11.60;;;15.20;11.40;;;;;;2618000;39;20700;-79
2022/03/16 10:07:00;;;;;;;13.07;11.97;;;15.40;10.20;;;;;;2617571;54;20386;-79
2022/03/16 10:15:23;;;;;;;12.93;11.83;;;15.40;8.50;;;;;;2616789;47;20422;-79
2022/03/16 10:17:59;;;;;;;13.00;11.03;;;15.40;8.30;;;;;;2616745;54;20402;-79
2022/03/16 10:20:32;;;;;;;13.83;12.47;;;15.40;7.60;;;;;;2618215;39;21298;-79
2022/03/16 10:23:14;;;;;;;15.20;13.60;;;15.30;8.70;;;;;;2617355;47;21327;-79
2022/03/16 10:26:49;;;;;;;13.50;12.50;;;15.50;8.80;;;;;;2616878;47;20436;-79
2022/03/16 10:29:15;;;;;;;14.30;13.00;;;16.00;7.30;;;;;;2616490;47;20462;-79
2022/03/16 10:32:01;;;;;;;14.47;13.07;;;16.10;5.60;;;;;;2617787;47;20435;-79
2022/03/16 10:34:27;;;;;;;13.43;12.13;;;15.90;6.10;;;;;;2617465;47;20407;-78
2022/03/16 10:36:55;;;;;;;13.33;12.13;;;;;;;;;;2617177;47;20968;-81
2022/03/16 10:39:37;;;;;;;14.20;12.90;;;15.90;6.60;;;;;;2617483;54;20410;-80
2022/03/16 10:48:01;;;;;;;13.33;12.20;;;;;;;;;;2617224;39;22022;-79
2022/03/16 10:50:50;;;;;;;13.47;12.37;;;16.20;7.60;;;;;;2617198;47;20420;-80
2022/03/16 10:53:40;;;;;;;13.63;12.20;;;16.50;4.50;;;;;;2617034;54;20528;-78
2022/03/16 10:56:16;;;;;;;13.20;12.20;;;16.90;4.10;;;;;;2616225;47;20458;-80
2022/03/16 10:58:46;;;;;;;13.87;12.63;;;17.20;2.90;;;;;;2616960;54;21035;-78
2022/03/16 11:01:17;;;;;;;14.77;13.57;;;17.30;1.40;;;;;;2617456;39;20795;-78
2022/03/16 11:03:45;;;;;;;13.33;12.27;;;;;;;;;;2616772;54;20394;-78
2022/03/16 11:06:13;;;;;;;14.10;13.10;;;17.50;1.50;;;;;;2617760;47;20389;-78
2022/03/16 11:08:41;;;;;;;14.67;13.43;;;;;;;;;;2617271;47;20964;-79
2022/03/16 11:13:56;;;;;;;15.37;14.20;;;17.40;1.00;;;;;;2616656;54;20967;-78
2022/03/16 11:16:25;;;;;;;15.00;13.80;;;16.90;9.60;;;;;;2634629;36;20407;-80
2022/03/16 11:18:51;;;;;;;15.63;14.27;;;16.70;1.90;;;;;;2616404;47;20407;-79
2022/03/16 11:21:24;;;;;;;14.23;13.13;;;16.60;2.50;;;;;;2615103;54;20391;-78
2022/03/16 11:27:12;;;;;;;14.27;13.07;;;18.00;1.00;;;;;;2616009;54;20407;-80
2022/03/16 11:29:51;;;;;;;13.67;12.67;;;18.30;1.00;;;;;;2614763;54;20946;-79
2022/03/16 11:32:19;;;;;;;12.77;11.77;;;17.90;1.00;;;;;;2616470;54;20427;-80
2022/03/16 11:34:54;;;;;;;12.23;11.33;;;17.40;1.00;;;;;;2616990;47;20519;-80
2022/03/16 11:37:32;;;;;;;14.43;13.10;;;17.80;10.70;;;;;;2616826;46;20533;-78
2022/03/16 11:40:24;;;;;;;13.20;12.27;;;18.00;1.00;;;;;;2615039;46;20422;-81
2022/03/16 11:43:06;;;;;;;12.90;11.93;;;18.00;1.00;;;;;;2615648;31;20919;-82
2022/03/16 11:45:37;;;;;;;13.47;12.40;;;17.90;1.00;;;;;;2616085;54;20427;-81
2022/03/16 11:51:09;;;;;;;14.50;13.30;;;17.50;1.00;;;;;;2617049;54;20428;-78
2022/03/16 11:53:50;;;;;;;14.10;12.70;;;17.50;1.00;;;;;;2616361;47;20418;-79
2022/03/16 11:56:23;;;;;;;12.83;11.93;;;17.10;1.00;;;;;;2617202;47;20430;-78
2022/03/16 11:59:05;;;;;;;12.97;11.03;;;17.10;1.00;;;;;;2617023;46;20434;-78
2022/03/16 12:01:33;;;;;;;13.40;11.27;;;17.60;1.00;;;;;;2617889;54;20414;-78
2022/03/16 12:04:12;;;;;;;12.23;11.17;;;17.60;1.00;;;;;;2617786;46;20411;-78
2022/03/16 12:07:01;;;;;;;13.90;12.60;;;17.30;1.00;;;;;;2617893;46;20419;-79
2022/03/16 12:09:45;;;;;;;11.60;10.70;;;17.40;1.00;;;;;;2618102;54;20428;-79
2022/03/16 12:15:37;;;;;;;10.17;9.37;;;18.00;1.00;;;;;;2617903;31;20879;-78
2022/03/16 12:18:14;;;;;;;10.20;9.40;;;17.10;1.00;;;;;;2617054;47;20459;-81
2022/03/16 12:20:42;;;;;;;9.23;8.33;;;17.00;1.00;;;;;;2618243;39;20787;-80
2022/03/16 12:23:18;;;;;;;12.30;10.33;;;17.10;1.00;;;;;;2618392;46;21047;-80
2022/03/16 12:25:47;;;;;;;12.63;11.73;;;17.20;1.00;;;;;;2618707;39;20912;-80
2022/03/16 12:31:11;;;;;;;13.10;12.00;;;17.50;1.00;;;;;;2618146;54;20932;-78
2022/03/16 12:33:42;;;;;;;12.13;11.23;;;18.00;1.00;;;;;;2617449;47;20408;-80
2022/03/16 12:36:12;;;;;;;12.90;12.03;;;18.10;1.00;;;;;;2617716;46;20488;-80
2022/03/16 12:39:09;;;;;;;11.77;10.67;;;17.90;1.00;;;;;;2618578;54;20754;-79
2022/03/16 12:44:21;;;;;;;12.30;11.40;;;18.20;1.00;;;;;;2617347;46;20406;-80
2022/03/16 12:47:03;;;;;;;11.40;10.63;;;18.60;1.00;;;;;;2616618;46;20447;-80
2022/03/16 12:49:30;;;;;;;12.50;11.53;;;18.50;1.00;;;;;;2616854;54;20508;-79
2022/03/16 12:52:01;;;;;;;12.50;11.60;;;19.00;1.00;;;;;;2615702;39;20891;-80
2022/03/16 12:54:36;;;;;;;11.10;10.20;;;18.50;1.00;;;;;;2615828;54;20406;-79
2022/03/16 12:57:09;;;;;;;11.20;10.20;;;18.80;1.00;;;;;;2617028;46;20452;-79
2022/03/16 12:59:52;;;;;;;12.53;11.30;;;18.30;1.00;;;;;;2616643;46;20403;-80
2022/03/16 13:02:31;;;;;;;13.20;12.20;;;19.10;1.00;;;;;;2615287;54;20989;-80
2022/03/16 13:05:00;;;;;;;11.73;10.93;;;;;;;;;;2616745;54;20430;-79
2022/03/16 13:07:27;;;;;;;10.40;9.50;;;19.30;1.00;;;;;;2615819;54;20491;-80
2022/03/16 13:09:53;;;;;;;11.23;10.03;;;19.00;1.00;;;;;;2616920;47;20418;-80
2022/03/16 13:12:22;;;;;;;9.73;8.93;;;18.70;1.00;;;;;;2616498;46;20416;-78
2022/03/16 13:14:54;;;;;;;11.13;9.93;;;18.10;1.00;;;;;;2615675;39;20782;-80
2022/03/16 13:17:23;;;;;;;10.10;9.30;;;17.90;1.00;;;;;;2616388;47;20449;-78
2022/03/16 13:19:53;;;;;;;11.07;10.17;;;17.90;1.00;;;;;;2617687;47;20405;-79
2022/03/16 13:22:22;;;;;;;11.10;10.30;;;17.90;1.00;;;;;;2617073;46;20443;-80
2022/03/16 13:24:57;;;;;;;11.20;10.40;;;18.10;1.00;;;;;;2616228;46;20412;-79
2022/03/16 13:27:35;;;;;;;10.70;9.80;;;18.30;1.00;;;;;;2616201;46;20619;-80